sensor_id;sensor_type;location;lat;lon;timestamp;P1;durP1;ratioP1;P2;durP2;ratioP2
5923;SDS011;2987;50.884;14.818;2023-04-19T00:02:10;28.13;;;19.77;;
5923;SDS011;2987;50.884;14.818;2023-04-19T00:04:36;27.33;;;20.90;;
5923;SDS011;2987;50.884;14.818;2023-04-19T00:07:02;27.43;;;19.47;;
5923;SDS011;2987;50.884;14.818;2023-04-19T00:09:29;25.07;;;19.07;;
5923;SDS011;2987;50.884;14.818;2023-04-19T00:11:55;24.93;;;19.93;;
5923;SDS011;2987;50.884;14.818;2023-04-19T00:14:21;24.17;;;18.63;;
5923;SDS011;2987;50.884;14.818;2023-04-19T00:16:47;23.07;;;18.47;;
5923;SDS011;2987;50.884;14.818;2023-04-19T00:19:13;23.63;;;18.87;;
5923;SDS011;2987;50.884;14.818;2023-04-19T00:21:40;24.57;;;18.57;;
5923;SDS011;2987;50.884;14.818;2023-04-19T00:24:06;23.43;;;18.00;;
5923;SDS011;2987;50.884;14.818;2023-04-19T00:26:32;22.30;;;18.27;;
5923;SDS011;2987;50.884;14.818;2023-04-19T00:28:58;21.00;;;17.73;;
5923;SDS011;2987;50.884;14.818;2023-04-19T00:31:25;22.00;;;17.80;;
5923;SDS011;2987;50.884;14.818;2023-04-19T00:33:51;23.27;;;16.73;;
5923;SDS011;2987;50.884;14.818;2023-04-19T00:36:17;28.70;;;18.43;;
5923;SDS011;2987;50.884;14.818;2023-04-19T00:38:45;21.83;;;17.93;;
5923;SDS011;2987;50.884;14.818;2023-04-19T00:41:12;20.83;;;16.67;;
5923;SDS011;2987;50.884;14.818;2023-04-19T00:43:38;21.83;;;18.07;;
5923;SDS011;2987;50.884;14.818;2023-04-19T00:46:05;23.47;;;17.70;;
5923;SDS011;2987;50.884;14.818;2023-04-19T00:48:31;23.47;;;17.80;;
5923;SDS011;2987;50.884;14.818;2023-04-19T00:51:01;23.73;;;18.00;;
5923;SDS011;2987;50.884;14.818;2023-04-19T00:53:28;22.00;;;17.97;;
5923;SDS011;2987;50.884;14.818;2023-04-19T00:55:56;22.27;;;17.30;;
5923;SDS011;2987;50.884;14.818;2023-04-19T00:58:26;23.70;;;18.57;;
5923;SDS011;2987;50.884;14.818;2023-04-19T01:00:56;25.83;;;18.13;;
5923;SDS011;2987;50.884;14.818;2023-04-19T01:03:22;21.03;;;18.10;;
5923;SDS011;2987;50.884;14.818;2023-04-19T01:05:51;22.27;;;16.87;;
5923;SDS011;2987;50.884;14.818;2023-04-19T01:08:18;21.83;;;17.27;;
5923;SDS011;2987;50.884;14.818;2023-04-19T01:10:44;23.27;;;17.10;;
5923;SDS011;2987;50.884;14.818;2023-04-19T01:13:10;24.97;;;17.07;;
5923;SDS011;2987;50.884;14.818;2023-04-19T01:15:36;20.30;;;17.10;;
5923;SDS011;2987;50.884;14.818;2023-04-19T01:18:02;21.53;;;16.67;;
5923;SDS011;2987;50.884;14.818;2023-04-19T01:20:28;25.13;;;17.60;;
5923;SDS011;2987;50.884;14.818;2023-04-19T01:22:55;20.53;;;17.10;;
5923;SDS011;2987;50.884;14.818;2023-04-19T01:25:21;19.43;;;16.30;;
5923;SDS011;2987;50.884;14.818;2023-04-19T01:27:47;23.07;;;16.43;;
5923;SDS011;2987;50.884;14.818;2023-04-19T01:30:13;19.70;;;16.30;;
5923;SDS011;2987;50.884;14.818;2023-04-19T01:32:39;24.43;;;17.70;;
5923;SDS011;2987;50.884;14.818;2023-04-19T01:35:05;21.17;;;15.87;;
5923;SDS011;2987;50.884;14.818;2023-04-19T01:37:35;21.27;;;15.90;;
5923;SDS011;2987;50.884;14.818;2023-04-19T01:40:03;20.90;;;16.60;;
5923;SDS011;2987;50.884;14.818;2023-04-19T01:42:30;17.23;;;15.00;;
5923;SDS011;2987;50.884;14.818;2023-04-19T01:44:59;22.70;;;14.80;;
5923;SDS011;2987;50.884;14.818;2023-04-19T01:47:25;19.83;;;15.27;;
5923;SDS011;2987;50.884;14.818;2023-04-19T01:49:52;17.97;;;14.80;;
5923;SDS011;2987;50.884;14.818;2023-04-19T01:52:18;20.87;;;14.83;;
5923;SDS011;2987;50.884;14.818;2023-04-19T01:54:46;18.80;;;14.60;;
5923;SDS011;2987;50.884;14.818;2023-04-19T01:57:14;21.73;;;15.23;;
5923;SDS011;2987;50.884;14.818;2023-04-19T01:59:41;18.13;;;15.13;;
5923;SDS011;2987;50.884;14.818;2023-04-19T02:02:07;19.27;;;15.70;;
5923;SDS011;2987;50.884;14.818;2023-04-19T02:04:33;19.47;;;14.90;;
5923;SDS011;2987;50.884;14.818;2023-04-19T02:06:59;21.10;;;15.30;;
5923;SDS011;2987;50.884;14.818;2023-04-19T02:09:27;21.57;;;14.93;;
5923;SDS011;2987;50.884;14.818;2023-04-19T02:11:54;18.87;;;14.87;;
5923;SDS011;2987;50.884;14.818;2023-04-19T02:14:20;20.67;;;15.13;;
5923;SDS011;2987;50.884;14.818;2023-04-19T02:16:47;18.53;;;14.47;;
5923;SDS011;2987;50.884;14.818;2023-04-19T02:19:13;18.00;;;14.47;;
5923;SDS011;2987;50.884;14.818;2023-04-19T02:21:40;18.30;;;14.00;;
5923;SDS011;2987;50.884;14.818;2023-04-19T02:24:06;19.87;;;14.40;;
5923;SDS011;2987;50.884;14.818;2023-04-19T02:26:32;19.50;;;14.03;;
5923;SDS011;2987;50.884;14.818;2023-04-19T02:28:58;17.83;;;13.53;;
5923;SDS011;2987;50.884;14.818;2023-04-19T02:31:24;16.30;;;14.03;;
5923;SDS011;2987;50.884;14.818;2023-04-19T02:33:50;18.40;;;14.40;;
5923;SDS011;2987;50.884;14.818;2023-04-19T02:36:17;17.00;;;13.43;;
5923;SDS011;2987;50.884;14.818;2023-04-19T02:38:43;22.27;;;13.57;;
5923;SDS011;2987;50.884;14.818;2023-04-19T02:41:09;17.40;;;13.23;;
5923;SDS011;2987;50.884;14.818;2023-04-19T02:43:38;18.50;;;13.90;;
5923;SDS011;2987;50.884;14.818;2023-04-19T02:46:04;16.73;;;14.00;;
5923;SDS011;2987;50.884;14.818;2023-04-19T02:48:31;18.37;;;13.53;;
5923;SDS011;2987;50.884;14.818;2023-04-19T02:50:57;15.60;;;12.77;;
5923;SDS011;2987;50.884;14.818;2023-04-19T02:53:23;19.60;;;13.43;;
5923;SDS011;2987;50.884;14.818;2023-04-19T02:55:50;19.40;;;13.90;;
5923;SDS011;2987;50.884;14.818;2023-04-19T02:58:21;14.13;;;12.60;;
5923;SDS011;2987;50.884;14.818;2023-04-19T03:00:58;16.53;;;13.67;;
5923;SDS011;2987;50.884;14.818;2023-04-19T03:03:25;19.13;;;13.67;;
5923;SDS011;2987;50.884;14.818;2023-04-19T03:05:51;18.47;;;13.50;;
5923;SDS011;2987;50.884;14.818;2023-04-19T03:08:17;16.70;;;12.23;;
5923;SDS011;2987;50.884;14.818;2023-04-19T03:10:44;19.83;;;12.77;;
5923;SDS011;2987;50.884;14.818;2023-04-19T03:13:11;14.77;;;11.43;;
5923;SDS011;2987;50.884;14.818;2023-04-19T03:15:37;15.63;;;12.63;;
5923;SDS011;2987;50.884;14.818;2023-04-19T03:18:03;16.77;;;12.77;;
5923;SDS011;2987;50.884;14.818;2023-04-19T03:20:30;19.93;;;12.73;;
5923;SDS011;2987;50.884;14.818;2023-04-19T03:22:56;17.10;;;12.80;;
5923;SDS011;2987;50.884;14.818;2023-04-19T03:25:24;16.20;;;12.37;;
5923;SDS011;2987;50.884;14.818;2023-04-19T03:27:59;16.00;;;13.73;;
5923;SDS011;2987;50.884;14.818;2023-04-19T03:30:45;19.90;;;13.53;;
5923;SDS011;2987;50.884;14.818;2023-04-19T03:33:11;15.13;;;12.10;;
5923;SDS011;2987;50.884;14.818;2023-04-19T03:35:37;15.40;;;13.03;;
5923;SDS011;2987;50.884;14.818;2023-04-19T03:38:09;20.13;;;12.67;;
5923;SDS011;2987;50.884;14.818;2023-04-19T03:40:36;17.80;;;12.60;;
5923;SDS011;2987;50.884;14.818;2023-04-19T03:43:03;15.77;;;13.07;;
5923;SDS011;2987;50.884;14.818;2023-04-19T03:45:32;16.60;;;12.40;;
5923;SDS011;2987;50.884;14.818;2023-04-19T03:47:58;23.63;;;14.03;;
5923;SDS011;2987;50.884;14.818;2023-04-19T03:50:24;15.00;;;12.23;;
5923;SDS011;2987;50.884;14.818;2023-04-19T03:52:54;16.60;;;12.10;;
5923;SDS011;2987;50.884;14.818;2023-04-19T03:55:20;15.47;;;12.80;;
5923;SDS011;2987;50.884;14.818;2023-04-19T03:57:46;17.63;;;12.57;;
5923;SDS011;2987;50.884;14.818;2023-04-19T04:00:22;17.63;;;12.17;;
5923;SDS011;2987;50.884;14.818;2023-04-19T04:02:54;13.47;;;12.07;;
5923;SDS011;2987;50.884;14.818;2023-04-19T04:05:21;18.03;;;12.53;;
5923;SDS011;2987;50.884;14.818;2023-04-19T04:07:47;17.73;;;12.90;;
5923;SDS011;2987;50.884;14.818;2023-04-19T04:10:13;15.30;;;12.33;;
5923;SDS011;2987;50.884;14.818;2023-04-19T04:12:41;14.27;;;11.90;;
5923;SDS011;2987;50.884;14.818;2023-04-19T04:15:11;17.20;;;12.43;;
5923;SDS011;2987;50.884;14.818;2023-04-19T04:17:44;16.30;;;12.33;;
5923;SDS011;2987;50.884;14.818;2023-04-19T04:20:10;16.87;;;12.43;;
5923;SDS011;2987;50.884;14.818;2023-04-19T04:22:40;15.37;;;12.80;;
5923;SDS011;2987;50.884;14.818;2023-04-19T04:25:09;15.57;;;12.23;;
5923;SDS011;2987;50.884;14.818;2023-04-19T04:27:37;14.23;;;12.17;;
5923;SDS011;2987;50.884;14.818;2023-04-19T04:30:07;14.03;;;11.40;;
5923;SDS011;2987;50.884;14.818;2023-04-19T04:32:34;15.33;;;12.17;;
5923;SDS011;2987;50.884;14.818;2023-04-19T04:35:02;15.37;;;12.27;;
5923;SDS011;2987;50.884;14.818;2023-04-19T04:37:38;15.10;;;11.73;;
5923;SDS011;2987;50.884;14.818;2023-04-19T04:40:05;15.97;;;11.23;;
5923;SDS011;2987;50.884;14.818;2023-04-19T04:42:33;14.97;;;12.03;;
5923;SDS011;2987;50.884;14.818;2023-04-19T04:45:00;16.13;;;11.53;;
5923;SDS011;2987;50.884;14.818;2023-04-19T04:47:29;16.43;;;11.77;;
5923;SDS011;2987;50.884;14.818;2023-04-19T04:49:58;13.83;;;10.60;;
5923;SDS011;2987;50.884;14.818;2023-04-19T04:52:25;14.97;;;11.53;;
5923;SDS011;2987;50.884;14.818;2023-04-19T04:55:00;14.17;;;11.17;;
5923;SDS011;2987;50.884;14.818;2023-04-19T04:57:31;17.63;;;10.70;;
5923;SDS011;2987;50.884;14.818;2023-04-19T04:59:58;18.43;;;10.43;;
5923;SDS011;2987;50.884;14.818;2023-04-19T05:02:30;17.67;;;10.43;;
5923;SDS011;2987;50.884;14.818;2023-04-19T05:04:56;12.63;;;10.13;;
5923;SDS011;2987;50.884;14.818;2023-04-19T05:07:23;13.63;;;9.93;;
5923;SDS011;2987;50.884;14.818;2023-04-19T05:09:48;13.67;;;9.10;;
5923;SDS011;2987;50.884;14.818;2023-04-19T05:12:21;10.17;;;8.63;;
5923;SDS011;2987;50.884;14.818;2023-04-19T05:14:47;15.60;;;9.37;;
5923;SDS011;2987;50.884;14.818;2023-04-19T05:17:13;13.70;;;9.13;;
5923;SDS011;2987;50.884;14.818;2023-04-19T05:19:40;13.27;;;9.03;;
5923;SDS011;2987;50.884;14.818;2023-04-19T05:22:06;10.57;;;8.80;;
5923;SDS011;2987;50.884;14.818;2023-04-19T05:24:33;12.60;;;8.63;;
5923;SDS011;2987;50.884;14.818;2023-04-19T05:27:00;10.77;;;7.67;;
5923;SDS011;2987;50.884;14.818;2023-04-19T05:29:26;13.30;;;8.20;;
5923;SDS011;2987;50.884;14.818;2023-04-19T05:31:54;13.83;;;8.30;;
5923;SDS011;2987;50.884;14.818;2023-04-19T05:34:23;15.53;;;7.90;;
5923;SDS011;2987;50.884;14.818;2023-04-19T05:36:53;11.87;;;7.53;;
5923;SDS011;2987;50.884;14.818;2023-04-19T05:39:23;9.07;;;7.00;;
5923;SDS011;2987;50.884;14.818;2023-04-19T05:41:51;10.57;;;7.03;;
5923;SDS011;2987;50.884;14.818;2023-04-19T05:44:17;12.27;;;6.90;;
5923;SDS011;2987;50.884;14.818;2023-04-19T05:46:43;9.10;;;6.57;;
5923;SDS011;2987;50.884;14.818;2023-04-19T05:49:13;12.37;;;6.53;;
5923;SDS011;2987;50.884;14.818;2023-04-19T05:51:39;8.23;;;6.47;;
5923;SDS011;2987;50.884;14.818;2023-04-19T05:54:13;8.40;;;6.30;;
5923;SDS011;2987;50.884;14.818;2023-04-19T05:56:42;9.53;;;6.07;;
5923;SDS011;2987;50.884;14.818;2023-04-19T05:59:08;10.20;;;5.90;;
5923;SDS011;2987;50.884;14.818;2023-04-19T06:01:36;9.47;;;6.13;;
5923;SDS011;2987;50.884;14.818;2023-04-19T06:04:02;8.07;;;6.27;;
5923;SDS011;2987;50.884;14.818;2023-04-19T06:06:28;10.80;;;5.70;;
5923;SDS011;2987;50.884;14.818;2023-04-19T06:08:54;6.90;;;5.40;;
5923;SDS011;2987;50.884;14.818;2023-04-19T06:11:20;9.93;;;5.27;;
5923;SDS011;2987;50.884;14.818;2023-04-19T06:13:47;6.17;;;5.30;;
5923;SDS011;2987;50.884;14.818;2023-04-19T06:16:15;8.50;;;4.87;;
5923;SDS011;2987;50.884;14.818;2023-04-19T06:18:41;7.63;;;4.93;;
5923;SDS011;2987;50.884;14.818;2023-04-19T06:21:07;11.07;;;5.10;;
5923;SDS011;2987;50.884;14.818;2023-04-19T06:23:33;7.60;;;5.07;;
5923;SDS011;2987;50.884;14.818;2023-04-19T06:25:59;6.90;;;4.83;;
5923;SDS011;2987;50.884;14.818;2023-04-19T06:28:25;7.73;;;5.00;;
5923;SDS011;2987;50.884;14.818;2023-04-19T06:30:52;8.10;;;4.77;;
5923;SDS011;2987;50.884;14.818;2023-04-19T06:33:18;7.20;;;5.17;;
5923;SDS011;2987;50.884;14.818;2023-04-19T06:35:44;8.87;;;4.90;;
5923;SDS011;2987;50.884;14.818;2023-04-19T06:38:10;7.50;;;4.80;;
5923;SDS011;2987;50.884;14.818;2023-04-19T06:40:36;5.60;;;4.17;;
5923;SDS011;2987;50.884;14.818;2023-04-19T06:43:02;9.37;;;4.70;;
5923;SDS011;2987;50.884;14.818;2023-04-19T06:45:29;9.57;;;5.20;;
5923;SDS011;2987;50.884;14.818;2023-04-19T06:47:56;7.30;;;4.70;;
5923;SDS011;2987;50.884;14.818;2023-04-19T06:50:22;7.40;;;4.37;;
5923;SDS011;2987;50.884;14.818;2023-04-19T06:52:48;5.03;;;4.53;;
5923;SDS011;2987;50.884;14.818;2023-04-19T06:55:15;5.20;;;4.07;;
5923;SDS011;2987;50.884;14.818;2023-04-19T06:57:41;6.77;;;4.50;;
5923;SDS011;2987;50.884;14.818;2023-04-19T07:00:08;7.93;;;4.17;;
5923;SDS011;2987;50.884;14.818;2023-04-19T07:02:35;4.27;;;3.70;;
5923;SDS011;2987;50.884;14.818;2023-04-19T07:05:01;5.40;;;4.10;;
5923;SDS011;2987;50.884;14.818;2023-04-19T07:07:28;5.57;;;4.20;;
5923;SDS011;2987;50.884;14.818;2023-04-19T07:09:54;10.23;;;4.67;;
5923;SDS011;2987;50.884;14.818;2023-04-19T07:12:21;4.90;;;3.70;;
5923;SDS011;2987;50.884;14.818;2023-04-19T07:14:47;4.57;;;4.03;;
5923;SDS011;2987;50.884;14.818;2023-04-19T07:17:13;6.87;;;3.90;;
5923;SDS011;2987;50.884;14.818;2023-04-19T07:19:39;4.47;;;3.47;;
5923;SDS011;2987;50.884;14.818;2023-04-19T07:22:06;4.97;;;3.50;;
5923;SDS011;2987;50.884;14.818;2023-04-19T07:24:32;6.07;;;3.67;;
5923;SDS011;2987;50.884;14.818;2023-04-19T07:26:59;5.27;;;3.30;;
5923;SDS011;2987;50.884;14.818;2023-04-19T07:29:26;4.43;;;3.00;;
5923;SDS011;2987;50.884;14.818;2023-04-19T07:31:55;6.23;;;3.70;;
5923;SDS011;2987;50.884;14.818;2023-04-19T07:34:24;5.83;;;3.47;;
5923;SDS011;2987;50.884;14.818;2023-04-19T07:36:50;3.30;;;3.00;;
5923;SDS011;2987;50.884;14.818;2023-04-19T07:39:16;7.60;;;3.13;;
5923;SDS011;2987;50.884;14.818;2023-04-19T07:41:43;9.97;;;3.07;;
5923;SDS011;2987;50.884;14.818;2023-04-19T07:44:10;3.50;;;3.20;;
5923;SDS011;2987;50.884;14.818;2023-04-19T07:46:38;4.57;;;3.27;;
5923;SDS011;2987;50.884;14.818;2023-04-19T07:49:06;4.03;;;3.10;;
5923;SDS011;2987;50.884;14.818;2023-04-19T07:51:32;4.53;;;2.90;;
5923;SDS011;2987;50.884;14.818;2023-04-19T07:53:59;5.73;;;3.30;;
5923;SDS011;2987;50.884;14.818;2023-04-19T07:56:25;6.37;;;3.50;;
5923;SDS011;2987;50.884;14.818;2023-04-19T07:58:54;6.83;;;3.47;;
5923;SDS011;2987;50.884;14.818;2023-04-19T08:01:21;5.10;;;3.03;;
5923;SDS011;2987;50.884;14.818;2023-04-19T08:03:47;3.67;;;3.00;;
5923;SDS011;2987;50.884;14.818;2023-04-19T08:06:13;6.83;;;3.40;;
5923;SDS011;2987;50.884;14.818;2023-04-19T08:08:39;5.10;;;3.23;;
5923;SDS011;2987;50.884;14.818;2023-04-19T08:11:05;3.30;;;2.97;;
5923;SDS011;2987;50.884;14.818;2023-04-19T08:13:31;7.73;;;3.53;;
5923;SDS011;2987;50.884;14.818;2023-04-19T08:15:57;5.10;;;2.90;;
5923;SDS011;2987;50.884;14.818;2023-04-19T08:18:23;7.93;;;3.30;;
5923;SDS011;2987;50.884;14.818;2023-04-19T08:20:49;6.23;;;3.50;;
5923;SDS011;2987;50.884;14.818;2023-04-19T08:23:16;6.17;;;3.13;;
5923;SDS011;2987;50.884;14.818;2023-04-19T08:25:42;6.10;;;3.10;;
5923;SDS011;2987;50.884;14.818;2023-04-19T08:28:08;3.60;;;3.30;;
5923;SDS011;2987;50.884;14.818;2023-04-19T08:30:36;5.20;;;3.10;;
5923;SDS011;2987;50.884;14.818;2023-04-19T08:33:02;7.60;;;3.40;;
5923;SDS011;2987;50.884;14.818;2023-04-19T08:35:28;6.57;;;3.73;;
5923;SDS011;2987;50.884;14.818;2023-04-19T08:37:55;7.47;;;3.87;;
5923;SDS011;2987;50.884;14.818;2023-04-19T08:40:21;3.97;;;3.47;;
5923;SDS011;2987;50.884;14.818;2023-04-19T08:42:47;8.33;;;4.70;;
5923;SDS011;2987;50.884;14.818;2023-04-19T08:45:14;7.97;;;4.10;;
5923;SDS011;2987;50.884;14.818;2023-04-19T08:47:41;7.87;;;4.10;;
5923;SDS011;2987;50.884;14.818;2023-04-19T08:50:08;7.37;;;4.00;;
5923;SDS011;2987;50.884;14.818;2023-04-19T08:52:35;7.97;;;3.90;;
5923;SDS011;2987;50.884;14.818;2023-04-19T08:55:03;7.13;;;4.07;;
5923;SDS011;2987;50.884;14.818;2023-04-19T08:57:30;8.00;;;4.07;;
5923;SDS011;2987;50.884;14.818;2023-04-19T08:59:57;6.30;;;4.13;;
5923;SDS011;2987;50.884;14.818;2023-04-19T09:02:25;6.33;;;3.83;;
5923;SDS011;2987;50.884;14.818;2023-04-19T09:04:51;5.97;;;4.07;;
5923;SDS011;2987;50.884;14.818;2023-04-19T09:07:25;6.27;;;4.33;;
5923;SDS011;2987;50.884;14.818;2023-04-19T09:18:09;7.77;;;4.03;;
5923;SDS011;2987;50.884;14.818;2023-04-19T09:20:36;9.57;;;3.90;;
5923;SDS011;2987;50.884;14.818;2023-04-19T09:23:05;7.60;;;4.57;;
5923;SDS011;2987;50.884;14.818;2023-04-19T09:25:34;8.63;;;4.17;;
5923;SDS011;2987;50.884;14.818;2023-04-19T09:28:08;6.10;;;3.73;;
5923;SDS011;2987;50.884;14.818;2023-04-19T09:30:38;6.50;;;4.43;;
5923;SDS011;2987;50.884;14.818;2023-04-19T09:33:05;6.97;;;4.53;;
5923;SDS011;2987;50.884;14.818;2023-04-19T09:35:40;6.67;;;4.33;;
5923;SDS011;2987;50.884;14.818;2023-04-19T09:38:09;5.40;;;4.27;;
5923;SDS011;2987;50.884;14.818;2023-04-19T09:40:36;8.83;;;5.33;;
5923;SDS011;2987;50.884;14.818;2023-04-19T09:43:04;14.70;;;5.23;;
5923;SDS011;2987;50.884;14.818;2023-04-19T09:45:38;5.57;;;4.67;;
5923;SDS011;2987;50.884;14.818;2023-04-19T09:48:06;11.83;;;5.50;;
5923;SDS011;2987;50.884;14.818;2023-04-19T09:50:34;6.67;;;4.90;;
5923;SDS011;2987;50.884;14.818;2023-04-19T09:53:01;7.03;;;5.07;;
5923;SDS011;2987;50.884;14.818;2023-04-19T09:55:28;7.90;;;5.60;;
5923;SDS011;2987;50.884;14.818;2023-04-19T09:57:56;9.13;;;5.53;;
5923;SDS011;2987;50.884;14.818;2023-04-19T10:00:22;10.53;;;5.17;;
5923;SDS011;2987;50.884;14.818;2023-04-19T10:02:51;8.83;;;5.23;;
5923;SDS011;2987;50.884;14.818;2023-04-19T10:05:22;10.73;;;5.20;;
5923;SDS011;2987;50.884;14.818;2023-04-19T10:07:50;6.43;;;5.20;;
5923;SDS011;2987;50.884;14.818;2023-04-19T10:10:17;8.53;;;5.30;;
5923;SDS011;2987;50.884;14.818;2023-04-19T10:12:46;5.33;;;4.50;;
5923;SDS011;2987;50.884;14.818;2023-04-19T10:15:15;9.30;;;4.80;;
5923;SDS011;2987;50.884;14.818;2023-04-19T10:17:44;5.77;;;4.83;;
5923;SDS011;2987;50.884;14.818;2023-04-19T10:20:12;9.37;;;4.90;;
5923;SDS011;2987;50.884;14.818;2023-04-19T10:22:48;9.13;;;4.80;;
5923;SDS011;2987;50.884;14.818;2023-04-19T10:25:15;8.03;;;4.67;;
5923;SDS011;2987;50.884;14.818;2023-04-19T10:27:42;7.10;;;5.20;;
5923;SDS011;2987;50.884;14.818;2023-04-19T10:30:18;6.80;;;4.47;;
5923;SDS011;2987;50.884;14.818;2023-04-19T10:32:55;7.43;;;5.17;;
5923;SDS011;2987;50.884;14.818;2023-04-19T10:35:27;6.20;;;4.77;;
5923;SDS011;2987;50.884;14.818;2023-04-19T10:38:10;10.87;;;5.50;;
5923;SDS011;2987;50.884;14.818;2023-04-19T10:43:26;10.07;;;5.10;;
5923;SDS011;2987;50.884;14.818;2023-04-19T10:50:58;8.43;;;6.10;;
5923;SDS011;2987;50.884;14.818;2023-04-19T10:56:55;7.63;;;5.07;;
5923;SDS011;2987;50.884;14.818;2023-04-19T10:59:37;14.47;;;8.30;;
5923;SDS011;2987;50.884;14.818;2023-04-19T11:04:57;7.20;;;5.40;;
5923;SDS011;2987;50.884;14.818;2023-04-19T11:07:25;13.13;;;7.00;;
5923;SDS011;2987;50.884;14.818;2023-04-19T11:09:51;9.00;;;5.30;;
5923;SDS011;2987;50.884;14.818;2023-04-19T11:12:18;14.70;;;6.13;;
5923;SDS011;2987;50.884;14.818;2023-04-19T11:14:45;11.13;;;6.97;;
5923;SDS011;2987;50.884;14.818;2023-04-19T11:17:22;11.33;;;6.70;;
5923;SDS011;2987;50.884;14.818;2023-04-19T11:19:53;6.20;;;4.93;;
5923;SDS011;2987;50.884;14.818;2023-04-19T11:25:13;9.90;;;5.47;;
5923;SDS011;2987;50.884;14.818;2023-04-19T11:27:44;10.53;;;5.40;;
5923;SDS011;2987;50.884;14.818;2023-04-19T11:30:13;6.03;;;4.63;;
5923;SDS011;2987;50.884;14.818;2023-04-19T11:32:49;6.23;;;4.80;;
5923;SDS011;2987;50.884;14.818;2023-04-19T11:37:44;8.20;;;4.57;;
5923;SDS011;2987;50.884;14.818;2023-04-19T11:42:45;6.27;;;4.90;;
5923;SDS011;2987;50.884;14.818;2023-04-19T11:45:25;4.90;;;4.10;;
5923;SDS011;2987;50.884;14.818;2023-04-19T11:47:55;7.00;;;3.93;;
5923;SDS011;2987;50.884;14.818;2023-04-19T11:53:11;8.30;;;4.50;;
5923;SDS011;2987;50.884;14.818;2023-04-19T12:00:34;7.40;;;4.10;;
5923;SDS011;2987;50.884;14.818;2023-04-19T12:03:00;5.43;;;4.13;;
5923;SDS011;2987;50.884;14.818;2023-04-19T12:05:27;6.83;;;4.00;;
5923;SDS011;2987;50.884;14.818;2023-04-19T12:07:58;6.07;;;4.10;;
5923;SDS011;2987;50.884;14.818;2023-04-19T12:10:29;5.00;;;3.93;;
5923;SDS011;2987;50.884;14.818;2023-04-19T12:12:56;11.17;;;4.20;;
5923;SDS011;2987;50.884;14.818;2023-04-19T12:15:23;7.67;;;4.37;;
5923;SDS011;2987;50.884;14.818;2023-04-19T12:18:06;10.77;;;4.00;;
5923;SDS011;2987;50.884;14.818;2023-04-19T12:20:33;5.53;;;4.27;;
5923;SDS011;2987;50.884;14.818;2023-04-19T12:23:00;5.00;;;4.33;;
5923;SDS011;2987;50.884;14.818;2023-04-19T12:25:29;6.50;;;4.63;;
5923;SDS011;2987;50.884;14.818;2023-04-19T12:27:58;7.17;;;4.80;;
5923;SDS011;2987;50.884;14.818;2023-04-19T12:30:25;11.13;;;4.70;;
5923;SDS011;2987;50.884;14.818;2023-04-19T12:32:53;7.87;;;4.77;;
5923;SDS011;2987;50.884;14.818;2023-04-19T12:35:21;7.23;;;5.57;;
5923;SDS011;2987;50.884;14.818;2023-04-19T12:37:51;7.43;;;5.40;;
5923;SDS011;2987;50.884;14.818;2023-04-19T12:40:19;13.40;;;5.83;;
5923;SDS011;2987;50.884;14.818;2023-04-19T12:42:45;9.57;;;6.07;;
5923;SDS011;2987;50.884;14.818;2023-04-19T12:45:12;11.27;;;6.27;;
5923;SDS011;2987;50.884;14.818;2023-04-19T12:47:38;9.73;;;6.33;;
5923;SDS011;2987;50.884;14.818;2023-04-19T12:50:06;7.00;;;5.53;;
5923;SDS011;2987;50.884;14.818;2023-04-19T12:52:33;9.43;;;6.73;;
5923;SDS011;2987;50.884;14.818;2023-04-19T12:55:00;12.83;;;8.13;;
5923;SDS011;2987;50.884;14.818;2023-04-19T12:57:26;8.60;;;7.00;;
5923;SDS011;2987;50.884;14.818;2023-04-19T12:59:52;19.27;;;9.43;;
5923;SDS011;2987;50.884;14.818;2023-04-19T13:02:18;12.00;;;7.20;;
5923;SDS011;2987;50.884;14.818;2023-04-19T13:04:44;13.83;;;8.40;;
5923;SDS011;2987;50.884;14.818;2023-04-19T13:07:11;17.27;;;9.50;;
5923;SDS011;2987;50.884;14.818;2023-04-19T13:09:37;13.73;;;7.73;;
5923;SDS011;2987;50.884;14.818;2023-04-19T13:12:04;12.13;;;6.97;;
5923;SDS011;2987;50.884;14.818;2023-04-19T13:14:30;15.33;;;7.80;;
5923;SDS011;2987;50.884;14.818;2023-04-19T13:16:56;13.23;;;7.80;;
5923;SDS011;2987;50.884;14.818;2023-04-19T13:19:23;10.10;;;6.50;;
5923;SDS011;2987;50.884;14.818;2023-04-19T13:21:49;12.03;;;6.93;;
5923;SDS011;2987;50.884;14.818;2023-04-19T13:24:15;11.77;;;7.73;;
5923;SDS011;2987;50.884;14.818;2023-04-19T13:26:41;11.30;;;7.10;;
5923;SDS011;2987;50.884;14.818;2023-04-19T13:29:10;11.80;;;6.33;;
5923;SDS011;2987;50.884;14.818;2023-04-19T13:31:37;12.73;;;8.67;;
5923;SDS011;2987;50.884;14.818;2023-04-19T13:34:03;14.90;;;8.30;;
5923;SDS011;2987;50.884;14.818;2023-04-19T13:36:30;12.30;;;7.47;;
5923;SDS011;2987;50.884;14.818;2023-04-19T13:38:56;13.40;;;8.93;;
5923;SDS011;2987;50.884;14.818;2023-04-19T13:41:22;17.17;;;9.70;;
5923;SDS011;2987;50.884;14.818;2023-04-19T13:43:48;16.57;;;9.40;;
5923;SDS011;2987;50.884;14.818;2023-04-19T13:46:14;9.87;;;6.63;;
5923;SDS011;2987;50.884;14.818;2023-04-19T13:48:40;8.50;;;6.60;;
5923;SDS011;2987;50.884;14.818;2023-04-19T13:51:07;8.37;;;6.23;;
5923;SDS011;2987;50.884;14.818;2023-04-19T13:53:33;10.33;;;6.37;;
5923;SDS011;2987;50.884;14.818;2023-04-19T13:55:59;8.77;;;6.07;;
5923;SDS011;2987;50.884;14.818;2023-04-19T13:58:25;8.10;;;6.23;;
5923;SDS011;2987;50.884;14.818;2023-04-19T14:00:51;11.43;;;6.13;;
5923;SDS011;2987;50.884;14.818;2023-04-19T14:03:18;9.93;;;6.50;;
5923;SDS011;2987;50.884;14.818;2023-04-19T14:05:45;7.60;;;5.60;;
5923;SDS011;2987;50.884;14.818;2023-04-19T14:08:12;6.87;;;5.27;;
5923;SDS011;2987;50.884;14.818;2023-04-19T14:10:38;6.03;;;5.43;;
5923;SDS011;2987;50.884;14.818;2023-04-19T14:13:05;7.40;;;5.40;;
5923;SDS011;2987;50.884;14.818;2023-04-19T14:15:34;6.13;;;5.00;;
5923;SDS011;2987;50.884;14.818;2023-04-19T14:18:01;5.60;;;4.20;;
5923;SDS011;2987;50.884;14.818;2023-04-19T14:20:27;6.67;;;4.60;;
5923;SDS011;2987;50.884;14.818;2023-04-19T14:22:53;6.20;;;4.80;;
5923;SDS011;2987;50.884;14.818;2023-04-19T14:25:20;5.50;;;5.00;;
5923;SDS011;2987;50.884;14.818;2023-04-19T14:27:46;5.30;;;4.80;;
5923;SDS011;2987;50.884;14.818;2023-04-19T14:30:12;5.50;;;5.10;;
5923;SDS011;2987;50.884;14.818;2023-04-19T14:32:38;6.27;;;5.57;;
5923;SDS011;2987;50.884;14.818;2023-04-19T14:35:05;6.73;;;5.57;;
5923;SDS011;2987;50.884;14.818;2023-04-19T14:37:33;5.63;;;5.13;;
5923;SDS011;2987;50.884;14.818;2023-04-19T14:39:59;7.37;;;5.50;;
5923;SDS011;2987;50.884;14.818;2023-04-19T14:42:26;8.23;;;5.17;;
5923;SDS011;2987;50.884;14.818;2023-04-19T14:44:52;5.10;;;4.43;;
5923;SDS011;2987;50.884;14.818;2023-04-19T14:47:18;4.60;;;4.20;;
5923;SDS011;2987;50.884;14.818;2023-04-19T14:49:45;6.73;;;4.57;;
5923;SDS011;2987;50.884;14.818;2023-04-19T14:52:12;4.37;;;3.97;;
5923;SDS011;2987;50.884;14.818;2023-04-19T14:54:38;4.00;;;3.70;;
5923;SDS011;2987;50.884;14.818;2023-04-19T14:57:04;4.00;;;3.60;;
5923;SDS011;2987;50.884;14.818;2023-04-19T14:59:30;4.27;;;3.80;;
5923;SDS011;2987;50.884;14.818;2023-04-19T15:01:56;4.73;;;4.20;;
5923;SDS011;2987;50.884;14.818;2023-04-19T15:04:22;3.03;;;2.83;;
5923;SDS011;2987;50.884;14.818;2023-04-19T15:06:48;2.40;;;2.20;;
5923;SDS011;2987;50.884;14.818;2023-04-19T15:09:15;2.23;;;2.13;;
5923;SDS011;2987;50.884;14.818;2023-04-19T15:11:41;3.30;;;3.00;;
5923;SDS011;2987;50.884;14.818;2023-04-19T15:14:07;3.20;;;2.90;;
5923;SDS011;2987;50.884;14.818;2023-04-19T15:16:34;3.43;;;3.13;;
5923;SDS011;2987;50.884;14.818;2023-04-19T15:19:01;3.50;;;3.20;;
5923;SDS011;2987;50.884;14.818;2023-04-19T15:21:27;3.60;;;3.30;;
5923;SDS011;2987;50.884;14.818;2023-04-19T15:23:53;3.70;;;3.40;;
5923;SDS011;2987;50.884;14.818;2023-04-19T15:26:19;3.90;;;3.60;;
5923;SDS011;2987;50.884;14.818;2023-04-19T15:28:46;4.30;;;3.90;;
5923;SDS011;2987;50.884;14.818;2023-04-19T15:31:12;3.57;;;3.27;;